Hlavní strana
METAR-TAF:

METAR-TAF

Letiště :

Letiště Žilina

Žilina, Slovensko

zeměpisná šířka: 49-14N, zeměpisná délka: 018-36-49E, výška: 312 m

Aktuální stav počasí

Zpráva byla vytvořena před 21 minutami, v 06:00 UTC
vítr z různých směrů 2 kt
Teplota 21°C
Vlhkost vzduchu 78%
Tlak 1015 hPa
Viditelnost 10 km a více
Žádná oblačnost pod 1500 m, nevyskytují se cumulonimby.

METAR: LZZI 190600Z VRB02KT CAVOK 21/17 Q1015

Čas: 08:21 (06:21 UTC)

Předpověď počasí

Zpráva byla vytvořena před 1 hodinou a 6 minutami, v 05:15 UTC
Předpověď platná od 19 v 06 UTC do 19 v 15 UTC
vítr z různých směrů 2 kt
Viditelnost 10 km a více
Žádná oblačnost pod 1500 m, nevyskytují se cumulonimby.
Změna
od 19 v 07 UTC do 19 v 08 UTC
Jihojihozápadní vítr 8 kt
Změna
od 19 v 12 UTC do 19 v 14 UTC
Západní vítr 9 kt

TAF: LZZI 190515Z 1906/1915 VRB02KT CAVOK BECMG 1907/1908 20008KT BECMG 1912/1914 26009KT

Stav a předpovědi počasí z více než 4 000 letišť (zprávy METAR a TAF).

Červené a žluté tečky na mapě představují dostupné meteorologické stanice.

Když kurzor umístíte na tečku, zobrazí se název stanice.

Pak kliknutím zobrazíte stav a předpověď počasí.

Chcete-li změnit mapu, kliknutím na zelené tlačítko se znaménkem +mapu přiblížíte, kliknutím na zelené tlačítko se znaménkem – mapu oddálíte a kliknutím na zelené šipky přejdete na sousední mapy.


METAR-TAF: